Time;durP1;ratioP1;P1;durP2;ratioP2;P2;SDS_P1;SDS_P2;PMS_P1;PMS_P2;Temp;Humidity;BMP_temperature;BMP_pressure;BME280_temperature;BME280_humidity;BME280_pressure;Samples;Min_cycle;Max_cycle;Signal;HPM_P1;HPM_P2
2021/09/10 03:53:35;;;;;;;280.13;265.90;;;16.80;99.90;;;;;;6216112;22;20474;-80
2021/09/10 03:56:03;;;;;;;282.13;268.13;;;16.90;99.90;;;;;;6225085;23;20436;-82
2021/09/10 03:58:31;;;;;;;289.40;275.03;;;17.00;99.90;;;;;;6215683;23;20408;-81
2021/09/10 04:01:00;;;;;;;284.80;270.30;;;17.10;99.90;;;;;;6217237;23;20700;-80
2021/09/10 04:03:37;;;;;;;;;;;;;;;;;;;;;
2021/09/10 04:06:11;;;;;;;273.37;259.70;;;17.30;99.90;;;;;;6216727;23;20404;-81
2021/09/10 04:08:40;;;;;;;267.40;253.70;;;17.20;99.90;;;;;;6225424;23;20433;-81
2021/09/10 04:11:09;;;;;;;266.57;252.20;;;17.30;99.90;;;;;;6216791;23;20400;-81
2021/09/10 04:13:36;;;;;;;258.40;245.30;;;17.30;99.90;;;;;;6217095;23;20401;-79
2021/09/10 04:16:17;;;;;;;253.70;240.60;;;17.40;99.90;;;;;;6226805;23;20410;-80
2021/09/10 04:18:50;;;;;;;250.33;237.57;;;17.40;99.90;;;;;;6226777;23;20415;-81
2021/09/10 04:21:24;;;;;;;253.67;240.47;;;17.50;99.90;;;;;;6226694;23;20841;-85
2021/09/10 04:23:53;;;;;;;254.20;241.30;;;17.50;99.90;;;;;;6215538;23;20401;-84
2021/09/10 04:26:20;;;;;;;245.97;232.57;;;17.60;99.90;;;;;;6216488;23;20412;-77
2021/09/10 04:28:47;;;;;;;231.53;219.23;;;17.50;99.90;;;;;;6226501;23;20441;-78
2021/09/10 04:31:14;;;;;;;220.17;207.97;;;17.50;99.90;;;;;;6217141;23;20424;-78
2021/09/10 04:33:41;;;;;;;215.60;203.80;;;17.50;99.90;;;;;;6217153;23;20479;-78
2021/09/10 04:36:08;;;;;;;214.30;203.00;;;17.40;99.90;;;;;;6227201;23;20406;-78
2021/09/10 04:38:35;;;;;;;201.03;190.00;;;17.30;99.90;;;;;;6215528;23;20488;-78
2021/09/10 04:41:06;;;;;;;197.53;186.77;;;17.30;99.90;;;;;;6226568;23;20916;-78
2021/09/10 04:47:15;;;;;;;204.93;193.07;;;17.20;99.90;;;;;;6077252;23;20484;-80
2021/09/10 04:49:42;;;;;;;208.77;197.27;;;17.10;99.90;;;;;;6104947;23;20443;-80
2021/09/10 04:52:09;;;;;;;224.53;212.63;;;17.00;99.90;;;;;;6194048;23;20892;-78
2021/09/10 04:54:36;;;;;;;246.43;232.93;;;17.00;99.90;;;;;;6214813;23;20461;-79
2021/09/10 04:57:05;;;;;;;240.63;227.73;;;16.90;99.90;;;;;;6216389;23;20410;-79
2021/09/10 04:59:31;;;;;;;231.13;218.43;;;16.90;99.90;;;;;;6216761;23;20412;-85
2021/09/10 05:01:58;;;;;;;232.67;219.20;;;16.90;99.90;;;;;;6216374;23;20488;-77
2021/09/10 05:04:25;;;;;;;223.50;210.57;;;16.90;99.90;;;;;;6216807;23;20408;-84
2021/09/10 05:06:52;;;;;;;231.63;218.63;;;16.80;99.90;;;;;;6226382;23;20418;-80
2021/09/10 05:09:19;;;;;;;241.67;228.67;;;16.80;99.90;;;;;;6214841;23;20435;-81
2021/09/10 05:11:46;;;;;;;250.17;236.30;;;16.80;99.90;;;;;;6216649;23;20400;-77
2021/09/10 05:14:15;;;;;;;256.43;242.87;;;16.70;99.90;;;;;;6216650;23;20408;-78
2021/09/10 05:16:42;;;;;;;252.97;239.13;;;16.70;99.90;;;;;;6216483;23;20404;-77
2021/09/10 05:19:10;;;;;;;259.00;244.40;;;16.80;99.90;;;;;;6216049;23;20403;-78
2021/09/10 05:21:37;;;;;;;266.60;252.37;;;16.90;99.90;;;;;;6216590;23;20404;-77
2021/09/10 05:24:05;;;;;;;260.80;246.80;;;16.80;99.90;;;;;;6215081;23;20404;-80
2021/09/10 05:26:32;;;;;;;249.80;236.10;;;16.80;99.90;;;;;;6216304;23;20495;-79
2021/09/10 05:28:59;;;;;;;249.47;235.47;;;16.80;99.90;;;;;;6216169;23;20514;-78
2021/09/10 05:31:27;;;;;;;249.23;235.77;;;16.80;99.90;;;;;;6216138;23;20489;-80
2021/09/10 05:33:54;;;;;;;241.23;227.73;;;16.70;99.90;;;;;;6216435;23;20403;-81
2021/09/10 05:36:21;;;;;;;239.27;226.47;;;16.70;99.90;;;;;;6216435;23;20404;-87
2021/09/10 05:38:48;;;;;;;242.83;229.90;;;16.80;99.90;;;;;;6214409;23;20400;-81
2021/09/10 05:41:15;;;;;;;241.97;228.27;;;16.70;99.90;;;;;;6215858;23;20982;-80
2021/09/10 05:43:42;;;;;;;248.30;235.00;;;16.70;99.90;;;;;;6216296;23;20438;-79
2021/09/10 05:46:08;;;;;;;259.70;245.33;;;16.80;99.90;;;;;;6216309;23;20401;-81
2021/09/10 05:48:37;;;;;;;262.50;248.30;;;17.00;99.90;;;;;;6216088;23;20504;-80
2021/09/10 05:51:04;;;;;;;259.37;244.67;;;17.10;99.90;;;;;;6226207;23;20410;-81
2021/09/10 05:53:31;;;;;;;272.33;257.77;;;17.20;99.90;;;;;;6214284;23;20435;-76
2021/09/10 05:56:32;;;;;;;263.60;249.40;;;17.30;99.90;;;;;;6216128;23;20409;-84
2021/09/10 05:59:28;;;;;;;262.77;248.77;;;17.50;99.90;;;;;;6226126;23;20467;-85
2021/09/10 06:02:34;;;;;;;;;;;;;;;;;;;;;
2021/09/10 06:18:12;;;;;;;197.33;187.03;;;19.00;99.90;;;;;;5926108;23;20445;-78
2021/09/10 06:25:13;;;;;;;;;;;;;;;;;;;;;
2021/09/10 09:09:03;;;;;;;7.73;5.03;;;23.80;76.40;;;;;;6267083;22;20475;-76
2021/09/10 09:11:30;;;;;;;8.37;4.80;;;23.70;73.40;;;;;;6288133;22;20414;-76
2021/09/10 09:14:02;;;;;;;7.57;5.30;;;23.50;74.80;;;;;;6277724;22;20412;-76
2021/09/10 09:16:30;;;;;;;8.50;5.40;;;23.60;76.70;;;;;;6277575;22;20405;-78
2021/09/10 09:18:58;;;;;;;6.67;4.77;;;23.30;76.40;;;;;;6277592;22;20807;-78
2021/09/10 09:21:28;;;;;;;6.27;4.70;;;23.10;77.70;;;;;;6287593;22;20384;-77
2021/09/10 09:23:57;;;;;;;6.50;5.07;;;22.90;77.40;;;;;;6286048;22;20405;-76
2021/09/10 09:26:27;;;;;;;9.80;4.70;;;22.80;77.30;;;;;;6287578;22;20488;-75
2021/09/10 09:29:09;;;;;;;8.13;5.53;;;22.70;77.90;;;;;;6276259;22;20818;-83
2021/09/10 09:31:41;;;;;;;9.53;5.77;;;22.60;80.50;;;;;;6287891;22;20157;-83
2021/09/10 09:34:10;;;;;;;8.60;5.10;;;22.40;80.30;;;;;;6287693;22;20444;-83
2021/09/10 09:36:52;;;;;;;8.00;5.30;;;22.40;80.00;;;;;;6277461;22;20400;-83
2021/09/10 09:39:25;;;;;;;10.50;5.60;;;22.30;80.30;;;;;;6275843;22;20406;-84
2021/09/10 09:42:08;;;;;;;10.23;6.87;;;22.30;82.20;;;;;;6277374;22;20401;-84
2021/09/10 09:59:02;;;;;;;;;;;;;;;;;;;;;
2021/09/10 12:42:56;;;;;;;79.10;75.20;;;20.20;99.90;;;;;;6221147;22;20507;-77
2021/09/10 12:45:23;;;;;;;78.43;74.23;;;20.90;99.90;;;;;;6216676;23;20443;-78
2021/09/10 12:47:51;;;;;;;73.07;69.83;;;21.60;99.90;;;;;;6217332;23;20410;-78
2021/09/10 12:50:18;;;;;;;57.57;55.27;;;22.00;99.90;;;;;;6217109;23;20793;-77
2021/09/10 12:52:45;;;;;;;58.07;55.67;;;22.40;99.90;;;;;;6216976;23;20411;-77
2021/09/10 12:55:12;;;;;;;47.20;45.30;;;22.90;99.90;;;;;;6215831;23;20408;-76
2021/09/10 12:57:39;;;;;;;16.00;15.03;;;23.20;99.90;;;;;;6216504;23;20445;-76
2021/09/10 13:00:11;;;;;;;8.37;7.57;;;24.40;99.90;;;;;;6217007;23;20735;-77
2021/09/10 13:02:37;;;;;;;3.83;2.50;;;25.10;99.90;;;;;;6204850;23;20479;-77
2021/09/10 13:05:05;;;;;;;7.47;2.47;;;26.00;99.90;;;;;;6216516;23;20931;-77
2021/09/10 13:07:32;;;;;;;5.30;2.53;;;26.70;84.00;;;;;;6216787;23;20483;-77
2021/09/10 13:10:00;;;;;;;5.40;2.70;;;26.90;76.70;;;;;;6214487;23;20932;-77
2021/09/10 13:12:26;;;;;;;4.60;2.50;;;27.20;76.20;;;;;;6226704;23;20415;-78
2021/09/10 13:14:54;;;;;;;6.63;3.07;;;27.00;67.70;;;;;;6216728;23;20487;-79
2021/09/10 13:17:23;;;;;;;4.57;2.70;;;27.00;59.70;;;;;;6216476;23;20825;-78
2021/09/10 13:19:51;;;;;;;5.40;2.67;;;26.70;61.60;;;;;;6216227;23;20404;-77
2021/09/10 13:22:19;;;;;;;5.10;2.47;;;27.10;59.30;;;;;;6216746;23;20746;-77
2021/09/10 13:24:46;;;;;;;5.90;3.10;;;27.40;56.50;;;;;;6215039;23;20458;-77
2021/09/10 13:27:15;;;;;;;4.30;2.33;;;27.60;52.40;;;;;;6216754;23;20483;-80
2021/09/10 13:29:42;;;;;;;5.70;2.80;;;28.60;49.40;;;;;;6216559;23;20489;-79
2021/09/10 13:32:10;;;;;;;6.03;2.33;;;29.20;42.90;;;;;;6216463;23;20400;-77
2021/09/10 13:34:39;;;;;;;4.43;1.63;;;29.70;41.50;;;;;;6216642;23;20401;-78
2021/09/10 13:37:10;;;;;;;5.77;2.20;;;29.40;33.80;;;;;;6226925;23;20436;-77
2021/09/10 13:39:37;;;;;;;4.80;2.63;;;28.90;36.40;;;;;;6215056;23;20387;-78
2021/09/10 13:42:04;;;;;;;4.03;1.60;;;28.40;40.20;;;;;;6216233;23;20760;-77
2021/09/10 13:44:31;;;;;;;5.17;2.40;;;27.70;40.70;;;;;;6216697;23;20420;-78
2021/09/10 13:46:58;;;;;;;4.47;2.10;;;27.50;41.40;;;;;;6216536;23;20404;-81
2021/09/10 16:37:37;;;;;;;29.70;28.40;;;21.90;95.90;;;;;;5733726;24;20863;-78
2021/09/10 16:43:56;;;;;;;37.47;35.97;;;21.90;96.50;;;;;;5785464;24;20428;-88
2021/09/10 18:37:58;;;;;;;214.00;202.87;;;18.40;99.90;;;;;;6219489;22;20457;-78
2021/09/10 19:05:25;;;;;;;240.07;227.60;;;18.00;99.90;;;;;;6246098;22;20483;-87
2021/09/10 19:25:55;;;;;;;259.27;246.37;;;18.10;99.90;;;;;;6231905;22;20822;-89
